MSC Newyork — HOFP — position and weather

sailwx.info

Track history (hours):
 
Tides and Currents Weather Stations Pressure Air Temp Water Temp Dewpoint Dewpoint Depression Visibility Wind Speed Wind Dir Waves Ship Positions

MSC Newyork

Last reported at 2017-Nov-12 18:53 UTC. Time now 2017-Nov-25 07:54 UTC.
Position N 31°33' E 032°11'.
Warning: this ship's position is 12 days out of date.

Length 399 m; draft 14.4 m.

Type: Ship. MMSI: 352952000.

Date/timePositionNaut miles runAvg speedWind from/ knotsBaromVisibWave heightAir tempDewpointWater temp
2017-Nov-12 18:53N 31°33' E 032°11'92418.2
2017-Nov-10 16:09N 36°36' E 014°38'318.7
2017-Nov-10 16:00N 36°37' E 014°35'918.8
2017-Nov-10 15:29N 36°41' E 014°24'95219.2
2017-Nov-08 14:01N 35°59' W 005°16'018.0
2017-Nov-08 14:00N 35°59' W 005°16'12 0.6
2017-Nov-07 17:32N 35°54' W 005°30'0 0.0
2017-Nov-07 17:29N 35°54' W 005°30'0 0.0
2017-Nov-07 16:59N 35°54' W 005°30'0 0.5
2017-Nov-07 16:30N 35°54' W 005°30'2 4.0
2017-Nov-07 16:00N 35°55' W 005°32'1 2.9
2017-Nov-07 15:30N 35°55' W 005°33'3 4.2
2017-Nov-07 14:51N 35°55' W 005°37'3 9.9
2017-Nov-07 14:30N 35°54' W 005°41'612.3
2017-Nov-07 14:00N 35°54' W 005°48'815.6
2017-Nov-07 13:30N 35°54' W 005°58'815.7
2017-Nov-07 13:00N 35°53' W 006°08'816.1
2017-Nov-07 12:30N 35°54' W 006°18'1916.7
2017-Nov-07 11:22N 35°59' W 006°40'11616.3
2017-Nov-07 04:15N 36°30' W 008°59'5514.1
2017-Nov-07 00:21N 37°14' W 009°40'615.9
2017-Nov-07 00:00N 37°19' W 009°42'816.2
2017-Nov-06 23:30N 37°27' W 009°44'916.3
2017-Nov-06 22:58N 37°35' W 009°48'716.2
2017-Nov-06 22:31N 37°42' W 009°51'816.3
2017-Nov-06 22:00N 37°50' W 009°53'816.1
2017-Nov-06 21:30N 37°58' W 009°55'815.9
2017-Nov-06 21:00N 38°06' W 009°56'816.2
2017-Nov-06 20:31N 38°14' W 009°58'64516.5
2017-Nov-05 05:21N 48°35' W 005°60'614.5
2017-Nov-05 04:54N 48°41' W 005°55'613.4
2017-Nov-05 04:29N 48°46' W 005°51'713.6
2017-Nov-05 04:00N 48°52' W 005°46'1712.4
2017-Nov-05 02:36N 49°03' W 005°26'412.7
2017-Nov-05 02:18N 49°05' W 005°21'512.7
2017-Nov-05 01:56N 49°07' W 005°14'1015.6
2017-Nov-05 01:19N 49°12' W 005°02'619.1
2017-Nov-05 01:01N 49°14' W 004°54'5820.5
2017-Nov-04 22:10N 49°43' W 003°36'520.5
2017-Nov-04 21:55N 49°46' W 003°29'919.9
2017-Nov-04 21:28N 49°50' W 003°17'919.2
2017-Nov-04 21:01N 49°54' W 003°05'917.9
2017-Nov-04 20:30N 49°58' W 002°52'817.0
2017-Nov-04 20:01N 50°00' W 002°40'816.3
2017-Nov-04 19:31N 50°02' W 002°27'815.8
2017-Nov-04 18:59N 50°03' W 002°15'815.7
2017-Nov-04 18:31N 50°03' W 002°03'815.9
2017-Nov-04 18:00N 50°02' W 001°51'917.2
2017-Nov-04 17:31N 49°59' W 001°39'918.4
2017-Nov-04 17:00N 49°55' W 001°26'1019.2
2017-Nov-04 16:31N 49°51' W 001°12'1019.7
2017-Nov-04 16:00N 49°47' W 000°58'1020.3
2017-Nov-04 15:30N 49°42' W 000°44'1019.7
2017-Nov-04 15:00N 49°38' W 000°30'1019.2
2017-Nov-04 14:31N 49°34' W 000°17'918.2
2017-Nov-04 14:01N 49°31' W 000°04'714.3
2017-Nov-04 13:30N 49°28' E 000°06'2 3.6
2017-Nov-04 12:58N 49°28' E 000°09'0 0.0
2017-Nov-04 12:28N 49°28' E 000°09'0 0.0
2017-Nov-04 11:58N 49°28' E 000°09'0 0.0
2017-Nov-04 11:28N 49°28' E 000°09'0 0.0
2017-Nov-04 10:58N 49°28' E 000°09'0 0.0
2017-Nov-04 10:28N 49°28' E 000°09'0 0.0
2017-Nov-04 09:58N 49°28' E 000°09'0 0.0
2017-Nov-04 09:28N 49°28' E 000°09'0 0.0
2017-Nov-04 08:58N 49°28' E 000°09'0 0.0
2017-Nov-04 08:28N 49°28' E 000°09'0 0.0
2017-Nov-04 07:58N 49°28' E 000°09'0 0.0
2017-Nov-04 07:28N 49°28' E 000°09'0 0.0
2017-Nov-04 06:58N 49°28' E 000°09'0 0.0
2017-Nov-04 06:28N 49°28' E 000°09'0 0.0
2017-Nov-04 05:58N 49°28' E 000°09'0 0.0
2017-Nov-04 05:28N 49°28' E 000°09'0 0.0
2017-Nov-04 04:58N 49°28' E 000°09'0 0.0
2017-Nov-04 04:28N 49°28' E 000°09'0 0.0
2017-Nov-04 03:58N 49°28' E 000°09'0 0.0
2017-Nov-04 03:28N 49°28' E 000°09'0 0.0
2017-Nov-04 02:58N 49°28' E 000°09'0 0.0
2017-Nov-04 02:28N 49°28' E 000°09'0 0.0
2017-Nov-04 01:58N 49°28' E 000°09'0 0.0
2017-Nov-04 01:28N 49°28' E 000°09'0 0.0
2017-Nov-04 00:58N 49°28' E 000°09'0 0.0
2017-Nov-04 00:28N 49°28' E 000°09'0 0.0
2017-Nov-03 23:58N 49°28' E 000°09'0 0.0
2017-Nov-03 23:28N 49°28' E 000°09'0 0.0
2017-Nov-03 22:58N 49°28' E 000°09'0 0.0
2017-Nov-03 22:28N 49°28' E 000°09'0 0.0
2017-Nov-03 21:58N 49°28' E 000°09'0 0.0
2017-Nov-03 21:28N 49°28' E 000°09'0 0.0
2017-Nov-03 20:58N 49°28' E 000°09'0 0.0
2017-Nov-03 20:28N 49°28' E 000°09'0 0.0
2017-Nov-03 19:58N 49°28' E 000°09'0 0.0
2017-Nov-03 19:28N 49°28' E 000°09'0 0.0
2017-Nov-03 18:58N 49°28' E 000°09'0 0.0
2017-Nov-03 18:28N 49°28' E 000°09'0 0.0
2017-Nov-03 17:58N 49°28' E 000°09'0 0.0
2017-Nov-03 17:28N 49°28' E 000°09'0 0.0
2017-Nov-03 16:58N 49°28' E 000°09'0 0.0
2017-Nov-03 16:28N 49°28' E 000°09'0 0.0
2017-Nov-03 15:58N 49°28' E 000°09'0 0.0
2017-Nov-03 15:28N 49°28' E 000°09'0 0.0
2017-Nov-03 14:58N 49°28' E 000°09'0 0.0
2017-Nov-03 14:28N 49°28' E 000°09'0 0.0
2017-Nov-03 13:58N 49°28' E 000°09'0 0.0
2017-Nov-03 13:28N 49°28' E 000°09'0 0.0
2017-Nov-03 12:58N 49°28' E 000°09'0 0.0
2017-Nov-03 12:28N 49°28' E 000°09'0 0.0
2017-Nov-03 11:58N 49°28' E 000°09'0 0.0
2017-Nov-03 11:28N 49°28' E 000°09'0 0.0
2017-Nov-03 10:58N 49°28' E 000°09'0 0.0
2017-Nov-03 10:28N 49°28' E 000°09'0 0.0
2017-Nov-03 09:58N 49°28' E 000°09'0 0.0
2017-Nov-03 09:28N 49°28' E 000°09'0 0.0
2017-Nov-03 08:58N 49°28' E 000°09'0 0.0
2017-Nov-03 08:28N 49°28' E 000°09'0 0.0
2017-Nov-03 07:58N 49°28' E 000°09'0 0.0
2017-Nov-03 07:28N 49°28' E 000°09'0 0.0
2017-Nov-03 06:58N 49°28' E 000°09'0 0.0
2017-Nov-03 06:28N 49°28' E 000°09'0 0.0
2017-Nov-03 05:58N 49°28' E 000°09'0 0.0
2017-Nov-03 05:28N 49°28' E 000°09'0 0.0
2017-Nov-03 04:58N 49°28' E 000°09'0 0.0
2017-Nov-03 04:28N 49°28' E 000°09'0 0.0
2017-Nov-03 03:58N 49°28' E 000°09'0 0.0
2017-Nov-03 03:28N 49°28' E 000°09'0 0.0
2017-Nov-03 02:58N 49°28' E 000°09'0 0.0
2017-Nov-03 02:28N 49°28' E 000°09'0 0.0
2017-Nov-03 01:58N 49°28' E 000°09'0 0.0
2017-Nov-03 01:28N 49°28' E 000°09'0 0.0
2017-Nov-03 00:58N 49°28' E 000°09'0 0.0
2017-Nov-03 00:28N 49°28' E 000°09'0 0.0
2017-Nov-02 23:58N 49°28' E 000°09'0 0.0
2017-Nov-02 23:28N 49°28' E 000°09'0 0.0
2017-Nov-02 22:58N 49°28' E 000°09'0 0.0
2017-Nov-02 22:28N 49°28' E 000°09'0 0.0
2017-Nov-02 21:58N 49°28' E 000°09'0 0.0
2017-Nov-02 21:28N 49°28' E 000°09'0 0.0
2017-Nov-02 20:58N 49°28' E 000°09'0 0.0
2017-Nov-02 20:28N 49°28' E 000°09'0 0.0
2017-Nov-02 19:58N 49°28' E 000°09'0 0.0
2017-Nov-02 19:28N 49°28' E 000°09'0 0.0
2017-Nov-02 18:58N 49°28' E 000°09'  
Track history (hours):
 
Tides and Currents Weather Stations Pressure Air Temp Water Temp Dewpoint Dewpoint Depression Visibility Wind Speed Wind Dir Waves Ship Positions

MSC Newyork

Last reported at 2017-Nov-12 18:53 UTC. Time now 2017-Nov-25 07:54 UTC.
Position N 31°33' E 032°11'.
Warning: this ship's position is 12 days out of date.

Length 399 m; draft 14.4 m.

Type: Ship. MMSI: 352952000.

Date/timePositionNaut miles runAvg speedWind from/ knotsBaromVisibWave heightAir tempDewpointWater temp
2017-Nov-12 18:53N 31°33' E 032°11'92418.2
2017-Nov-10 16:09N 36°36' E 014°38'318.7
2017-Nov-10 16:00N 36°37' E 014°35'918.8
2017-Nov-10 15:29N 36°41' E 014°24'95219.2
2017-Nov-08 14:01N 35°59' W 005°16'018.0
2017-Nov-08 14:00N 35°59' W 005°16'12 0.6
2017-Nov-07 17:32N 35°54' W 005°30'0 0.0
2017-Nov-07 17:29N 35°54' W 005°30'0 0.0
2017-Nov-07 16:59N 35°54' W 005°30'0 0.5
2017-Nov-07 16:30N 35°54' W 005°30'2 4.0
2017-Nov-07 16:00N 35°55' W 005°32'1 2.9
2017-Nov-07 15:30N 35°55' W 005°33'3 4.2
2017-Nov-07 14:51N 35°55' W 005°37'3 9.9
2017-Nov-07 14:30N 35°54' W 005°41'612.3
2017-Nov-07 14:00N 35°54' W 005°48'815.6
2017-Nov-07 13:30N 35°54' W 005°58'815.7
2017-Nov-07 13:00N 35°53' W 006°08'816.1
2017-Nov-07 12:30N 35°54' W 006°18'1916.7
2017-Nov-07 11:22N 35°59' W 006°40'11616.3
2017-Nov-07 04:15N 36°30' W 008°59'5514.1
2017-Nov-07 00:21N 37°14' W 009°40'615.9
2017-Nov-07 00:00N 37°19' W 009°42'816.2
2017-Nov-06 23:30N 37°27' W 009°44'916.3
2017-Nov-06 22:58N 37°35' W 009°48'716.2
2017-Nov-06 22:31N 37°42' W 009°51'816.3
2017-Nov-06 22:00N 37°50' W 009°53'816.1
2017-Nov-06 21:30N 37°58' W 009°55'815.9
2017-Nov-06 21:00N 38°06' W 009°56'816.2
2017-Nov-06 20:31N 38°14' W 009°58'64516.5
2017-Nov-05 05:21N 48°35' W 005°60'614.5
2017-Nov-05 04:54N 48°41' W 005°55'613.4
2017-Nov-05 04:29N 48°46' W 005°51'713.6
2017-Nov-05 04:00N 48°52' W 005°46'1712.4
2017-Nov-05 02:36N 49°03' W 005°26'412.7
2017-Nov-05 02:18N 49°05' W 005°21'512.7
2017-Nov-05 01:56N 49°07' W 005°14'1015.6
2017-Nov-05 01:19N 49°12' W 005°02'619.1
2017-Nov-05 01:01N 49°14' W 004°54'5820.5
2017-Nov-04 22:10N 49°43' W 003°36'520.5
2017-Nov-04 21:55N 49°46' W 003°29'919.9
2017-Nov-04 21:28N 49°50' W 003°17'919.2
2017-Nov-04 21:01N 49°54' W 003°05'917.9
2017-Nov-04 20:30N 49°58' W 002°52'817.0
2017-Nov-04 20:01N 50°00' W 002°40'816.3
2017-Nov-04 19:31N 50°02' W 002°27'815.8
2017-Nov-04 18:59N 50°03' W 002°15'815.7
2017-Nov-04 18:31N 50°03' W 002°03'815.9
2017-Nov-04 18:00N 50°02' W 001°51'917.2
2017-Nov-04 17:31N 49°59' W 001°39'918.4
2017-Nov-04 17:00N 49°55' W 001°26'1019.2
2017-Nov-04 16:31N 49°51' W 001°12'1019.7
2017-Nov-04 16:00N 49°47' W 000°58'1020.3
2017-Nov-04 15:30N 49°42' W 000°44'1019.7
2017-Nov-04 15:00N 49°38' W 000°30'1019.2
2017-Nov-04 14:31N 49°34' W 000°17'918.2
2017-Nov-04 14:01N 49°31' W 000°04'714.3
2017-Nov-04 13:30N 49°28' E 000°06'2 3.6
2017-Nov-04 12:58N 49°28' E 000°09'0 0.0
2017-Nov-04 12:28N 49°28' E 000°09'0 0.0
2017-Nov-04 11:58N 49°28' E 000°09'0 0.0
2017-Nov-04 11:28N 49°28' E 000°09'0 0.0
2017-Nov-04 10:58N 49°28' E 000°09'0 0.0
2017-Nov-04 10:28N 49°28' E 000°09'0 0.0
2017-Nov-04 09:58N 49°28' E 000°09'0 0.0
2017-Nov-04 09:28N 49°28' E 000°09'0 0.0
2017-Nov-04 08:58N 49°28' E 000°09'0 0.0
2017-Nov-04 08:28N 49°28' E 000°09'0 0.0
2017-Nov-04 07:58N 49°28' E 000°09'0 0.0
2017-Nov-04 07:28N 49°28' E 000°09'0 0.0
2017-Nov-04 06:58N 49°28' E 000°09'0 0.0
2017-Nov-04 06:28N 49°28' E 000°09'0 0.0
2017-Nov-04 05:58N 49°28' E 000°09'0 0.0
2017-Nov-04 05:28N 49°28' E 000°09'0 0.0
2017-Nov-04 04:58N 49°28' E 000°09'0 0.0
2017-Nov-04 04:28N 49°28' E 000°09'0 0.0
2017-Nov-04 03:58N 49°28' E 000°09'0 0.0
2017-Nov-04 03:28N 49°28' E 000°09'0 0.0
2017-Nov-04 02:58N 49°28' E 000°09'0 0.0
2017-Nov-04 02:28N 49°28' E 000°09'0 0.0
2017-Nov-04 01:58N 49°28' E 000°09'0 0.0
2017-Nov-04 01:28N 49°28' E 000°09'0 0.0
2017-Nov-04 00:58N 49°28' E 000°09'0 0.0
2017-Nov-04 00:28N 49°28' E 000°09'0 0.0
2017-Nov-03 23:58N 49°28' E 000°09'0 0.0
2017-Nov-03 23:28N 49°28' E 000°09'0 0.0
2017-Nov-03 22:58N 49°28' E 000°09'0 0.0
2017-Nov-03 22:28N 49°28' E 000°09'0 0.0
2017-Nov-03 21:58N 49°28' E 000°09'0 0.0
2017-Nov-03 21:28N 49°28' E 000°09'0 0.0
2017-Nov-03 20:58N 49°28' E 000°09'0 0.0
2017-Nov-03 20:28N 49°28' E 000°09'0 0.0
2017-Nov-03 19:58N 49°28' E 000°09'0 0.0
2017-Nov-03 19:28N 49°28' E 000°09'0 0.0
2017-Nov-03 18:58N 49°28' E 000°09'0 0.0
2017-Nov-03 18:28N 49°28' E 000°09'0 0.0
2017-Nov-03 17:58N 49°28' E 000°09'0 0.0
2017-Nov-03 17:28N 49°28' E 000°09'0 0.0
2017-Nov-03 16:58N 49°28' E 000°09'0 0.0
2017-Nov-03 16:28N 49°28' E 000°09'0 0.0
2017-Nov-03 15:58N 49°28' E 000°09'0 0.0
2017-Nov-03 15:28N 49°28' E 000°09'0 0.0
2017-Nov-03 14:58N 49°28' E 000°09'0 0.0
2017-Nov-03 14:28N 49°28' E 000°09'0 0.0
2017-Nov-03 13:58N 49°28' E 000°09'0 0.0
2017-Nov-03 13:28N 49°28' E 000°09'0 0.0
2017-Nov-03 12:58N 49°28' E 000°09'0 0.0
2017-Nov-03 12:28N 49°28' E 000°09'0 0.0
2017-Nov-03 11:58N 49°28' E 000°09'0 0.0
2017-Nov-03 11:28N 49°28' E 000°09'0 0.0
2017-Nov-03 10:58N 49°28' E 000°09'0 0.0
2017-Nov-03 10:28N 49°28' E 000°09'0 0.0
2017-Nov-03 09:58N 49°28' E 000°09'0 0.0
2017-Nov-03 09:28N 49°28' E 000°09'0 0.0
2017-Nov-03 08:58N 49°28' E 000°09'0 0.0
2017-Nov-03 08:28N 49°28' E 000°09'0 0.0
2017-Nov-03 07:58N 49°28' E 000°09'0 0.0
2017-Nov-03 07:28N 49°28' E 000°09'0 0.0
2017-Nov-03 06:58N 49°28' E 000°09'0 0.0
2017-Nov-03 06:28N 49°28' E 000°09'0 0.0
2017-Nov-03 05:58N 49°28' E 000°09'0 0.0
2017-Nov-03 05:28N 49°28' E 000°09'0 0.0
2017-Nov-03 04:58N 49°28' E 000°09'0 0.0
2017-Nov-03 04:28N 49°28' E 000°09'0 0.0
2017-Nov-03 03:58N 49°28' E 000°09'0 0.0
2017-Nov-03 03:28N 49°28' E 000°09'0 0.0
2017-Nov-03 02:58N 49°28' E 000°09'0 0.0
2017-Nov-03 02:28N 49°28' E 000°09'0 0.0
2017-Nov-03 01:58N 49°28' E 000°09'0 0.0
2017-Nov-03 01:28N 49°28' E 000°09'0 0.0
2017-Nov-03 00:58N 49°28' E 000°09'0 0.0
2017-Nov-03 00:28N 49°28' E 000°09'0 0.0
2017-Nov-02 23:58N 49°28' E 000°09'0 0.0
2017-Nov-02 23:28N 49°28' E 000°09'0 0.0
2017-Nov-02 22:58N 49°28' E 000°09'0 0.0
2017-Nov-02 22:28N 49°28' E 000°09'0 0.0
2017-Nov-02 21:58N 49°28' E 000°09'0 0.0
2017-Nov-02 21:28N 49°28' E 000°09'0 0.0
2017-Nov-02 20:58N 49°28' E 000°09'0 0.0
2017-Nov-02 20:28N 49°28' E 000°09'0 0.0
2017-Nov-02 19:58N 49°28' E 000°09'0 0.0
2017-Nov-02 19:28N 49°28' E 000°09'0 0.0
2017-Nov-02 18:58N 49°28' E 000°09'  

Dump ship's entire track history